createdAt,value
2023-01-22T00:00:06.005Z,1014.04
2023-01-22T00:00:46.536Z,1014.03
2023-01-22T00:01:27.039Z,1014.05
2023-01-22T00:02:07.622Z,1014.01
2023-01-22T00:02:48.102Z,1014.03
2023-01-22T00:03:28.597Z,1013.98
2023-01-22T00:04:09.070Z,1014
2023-01-22T00:04:49.560Z,1013.97
2023-01-22T00:05:30.066Z,1013.97
2023-01-22T00:06:10.531Z,1013.93
2023-01-22T00:06:51.096Z,1014
2023-01-22T00:07:31.582Z,1014.01
2023-01-22T00:08:12.452Z,1013.98
2023-01-22T00:08:52.875Z,1013.99
2023-01-22T00:09:33.342Z,1014.01
2023-01-22T00:10:13.934Z,1013.97
2023-01-22T00:10:54.484Z,1014.01
2023-01-22T00:12:52.132Z,1014.01
2023-01-22T00:13:32.683Z,1013.95
2023-01-22T00:14:13.249Z,1013.98
2023-01-22T00:14:53.753Z,1013.98
2023-01-22T00:17:06.710Z,1013.92
2023-01-22T00:17:47.122Z,1013.96
2023-01-22T00:18:27.613Z,1013.91
2023-01-22T00:19:09.907Z,1013.92
2023-01-22T00:19:51.072Z,1013.95
2023-01-22T00:20:31.566Z,1013.96
2023-01-22T00:21:12.036Z,1013.93
2023-01-22T00:21:52.553Z,1013.93
2023-01-22T00:22:33.195Z,1013.95
2023-01-22T00:23:14.510Z,1013.91
2023-01-22T00:23:56.016Z,1013.9
2023-01-22T00:24:36.527Z,1013.91
2023-01-22T00:25:17.023Z,1013.89
2023-01-22T00:25:57.531Z,1013.88
2023-01-22T00:26:38.052Z,1013.9
2023-01-22T00:27:18.502Z,1013.88
2023-01-22T00:27:59.014Z,1013.87
2023-01-22T00:28:39.571Z,1013.86
2023-01-22T00:29:20.058Z,1013.86
2023-01-22T00:30:00.580Z,1013.89
2023-01-22T00:30:41.151Z,1013.84
2023-01-22T00:31:21.779Z,1013.86
2023-01-22T00:32:02.355Z,1013.84
2023-01-22T00:32:42.717Z,1013.87
2023-01-22T00:33:23.238Z,1013.84
2023-01-22T00:34:03.755Z,1013.86
2023-01-22T00:34:44.269Z,1013.87
2023-01-22T00:35:24.899Z,1013.83
2023-01-22T00:36:05.400Z,1013.83
2023-01-22T00:36:45.961Z,1013.82
2023-01-22T00:37:26.507Z,1013.85
2023-01-22T00:38:07.092Z,1013.82
2023-01-22T00:38:47.585Z,1013.81
2023-01-22T00:39:28.126Z,1013.85
2023-01-22T00:40:08.644Z,1013.85
2023-01-22T00:40:49.158Z,1013.82
2023-01-22T00:41:29.686Z,1013.85
2023-01-22T00:43:43.011Z,1013.78
2023-01-22T00:44:25.535Z,1013.83
2023-01-22T00:45:06.049Z,1013.8
2023-01-22T00:45:48.553Z,1013.79
2023-01-22T00:47:58.035Z,1013.79
2023-01-22T00:48:39.265Z,1013.77
2023-01-22T00:49:19.801Z,1013.78
2023-01-22T00:50:00.330Z,1013.77
2023-01-22T00:50:40.895Z,1013.78
2023-01-22T00:51:21.433Z,1013.72
2023-01-22T00:52:01.934Z,1013.75
2023-01-22T00:52:42.441Z,1013.71
2023-01-22T00:53:22.974Z,1013.74
2023-01-22T00:54:03.484Z,1013.74
2023-01-22T00:54:43.994Z,1013.68
2023-01-22T00:55:24.515Z,1013.74
2023-01-22T00:56:05.098Z,1013.71
2023-01-22T00:56:45.632Z,1013.73
2023-01-22T00:58:43.753Z,1013.66
2023-01-22T00:59:24.276Z,1013.65
2023-01-22T01:00:05.570Z,1013.67
2023-01-22T01:00:46.123Z,1013.65
2023-01-22T01:01:26.606Z,1013.64
2023-01-22T01:02:07.173Z,1013.67
2023-01-22T01:02:47.635Z,1013.64
2023-01-22T01:03:28.160Z,1013.64
2023-01-22T01:04:08.671Z,1013.64
2023-01-22T01:04:49.183Z,1013.61
2023-01-22T01:05:29.736Z,1013.63
2023-01-22T01:06:10.259Z,1013.64
2023-01-22T01:06:50.773Z,1013.64
2023-01-22T01:07:31.284Z,1013.62
2023-01-22T01:08:11.807Z,1013.67
2023-01-22T01:08:52.317Z,1013.63
2023-01-22T01:09:32.862Z,1013.64
2023-01-22T01:10:14.853Z,1013.61
2023-01-22T01:10:55.380Z,1013.61
2023-01-22T01:11:35.929Z,1013.61
2023-01-22T01:12:16.504Z,1013.62
2023-01-22T01:12:57.176Z,1013.6
2023-01-22T01:13:37.579Z,1013.6
2023-01-22T01:14:18.110Z,1013.58
2023-01-22T01:14:58.683Z,1013.6
2023-01-22T01:15:39.981Z,1013.58
2023-01-22T01:16:20.549Z,1013.55
2023-01-22T01:17:01.796Z,1013.56
2023-01-22T01:17:43.199Z,1013.57
2023-01-22T01:18:23.714Z,1013.56
2023-01-22T01:19:04.273Z,1013.56
2023-01-22T01:19:45.492Z,1013.56
2023-01-22T01:20:26.027Z,1013.57
2023-01-22T01:21:07.378Z,1013.58
2023-01-22T01:21:47.867Z,1013.58
2023-01-22T01:22:28.425Z,1013.59
2023-01-22T01:23:08.976Z,1013.57
2023-01-22T01:23:49.487Z,1013.55
2023-01-22T01:24:30.003Z,1013.59
2023-01-22T01:25:10.530Z,1013.57
2023-01-22T01:25:51.059Z,1013.59
2023-01-22T01:26:31.567Z,1013.57
2023-01-22T01:27:12.104Z,1013.57
2023-01-22T01:27:52.710Z,1013.57
2023-01-22T01:28:33.362Z,1013.54
2023-01-22T01:29:13.756Z,1013.58
2023-01-22T01:31:27.385Z,1013.59
2023-01-22T01:33:22.701Z,1013.62
2023-01-22T01:34:03.234Z,1013.63
2023-01-22T01:34:43.761Z,1013.64
2023-01-22T01:35:24.448Z,1013.62
2023-01-22T01:36:04.853Z,1013.62
2023-01-22T01:36:48.916Z,1013.66
2023-01-22T01:37:25.950Z,1013.63
2023-01-22T01:38:06.500Z,1013.63
2023-01-22T01:38:47.053Z,1013.64
2023-01-22T01:39:27.575Z,1013.64
2023-01-22T01:40:09.034Z,1013.62
2023-01-22T01:40:49.526Z,1013.65
2023-01-22T01:41:30.024Z,1013.65
2023-01-22T01:42:10.545Z,1013.65
2023-01-22T01:42:51.130Z,1013.64
2023-01-22T01:44:49.622Z,1013.66
2023-01-22T01:45:30.017Z,1013.64
2023-01-22T01:46:10.564Z,1013.65
2023-01-22T01:46:51.191Z,1013.63
2023-01-22T01:47:31.568Z,1013.61
2023-01-22T01:48:12.205Z,1013.62
2023-01-22T01:48:52.755Z,1013.65
2023-01-22T01:49:33.260Z,1013.64
2023-01-22T01:50:13.782Z,1013.62
2023-01-22T01:50:55.292Z,1013.6
2023-01-22T01:51:35.792Z,1013.61
2023-01-22T01:52:16.316Z,1013.63
2023-01-22T01:52:56.830Z,1013.55
2023-01-22T01:53:37.334Z,1013.6
2023-01-22T01:54:17.883Z,1013.59
2023-01-22T01:54:58.452Z,1013.6
2023-01-22T01:55:38.993Z,1013.59
2023-01-22T01:56:19.528Z,1013.58
2023-01-22T01:57:00.099Z,1013.58
2023-01-22T01:57:40.557Z,1013.56
2023-01-22T01:58:21.096Z,1013.58
2023-01-22T01:59:01.629Z,1013.59
2023-01-22T01:59:42.130Z,1013.58
2023-01-22T02:00:22.778Z,1013.59
2023-01-22T02:01:03.237Z,1013.6
2023-01-22T02:01:43.780Z,1013.61
2023-01-22T02:02:24.379Z,1013.56
2023-01-22T02:03:04.837Z,1013.61
2023-01-22T02:03:45.366Z,1013.6
2023-01-22T02:04:25.892Z,1013.58
2023-01-22T02:05:06.396Z,1013.58
2023-01-22T02:05:46.952Z,1013.6
2023-01-22T02:06:27.515Z,1013.62
2023-01-22T02:07:08.038Z,1013.57
2023-01-22T02:09:06.463Z,1013.61
2023-01-22T02:09:46.993Z,1013.53
2023-01-22T02:10:27.497Z,1013.57
2023-01-22T02:11:08.010Z,1013.56
2023-01-22T02:11:48.527Z,1013.54
2023-01-22T02:12:29.059Z,1013.54
2023-01-22T02:13:09.567Z,1013.55
2023-01-22T02:13:51.430Z,1013.56
2023-01-22T02:16:03.511Z,1013.56
2023-01-22T02:16:43.787Z,1013.57
2023-01-22T02:17:25.151Z,1013.57
2023-01-22T02:18:05.686Z,1013.55
2023-01-22T02:20:18.678Z,1013.55
2023-01-22T02:20:58.975Z,1013.57
2023-01-22T02:21:39.485Z,1013.54
2023-01-22T02:22:19.998Z,1013.54
2023-01-22T02:23:00.489Z,1013.52
2023-01-22T02:23:41.016Z,1013.55
2023-01-22T02:24:22.428Z,1013.51
2023-01-22T02:25:02.960Z,1013.49
2023-01-22T02:25:43.459Z,1013.51
2023-01-22T02:26:24.907Z,1013.5
2023-01-22T02:27:05.427Z,1013.49
2023-01-22T02:27:45.925Z,1013.45
2023-01-22T02:28:26.437Z,1013.41
2023-01-22T02:29:06.958Z,1013.41
2023-01-22T02:29:47.467Z,1013.41
2023-01-22T02:30:27.977Z,1013.41
2023-01-22T02:31:08.699Z,1013.4
2023-01-22T02:31:49.785Z,1013.41
2023-01-22T02:32:30.239Z,1013.35
2023-01-22T02:33:10.764Z,1013.42
2023-01-22T02:33:51.257Z,1013.43
2023-01-22T02:34:31.772Z,1013.4
2023-01-22T02:35:12.310Z,1013.41
2023-01-22T02:35:52.827Z,1013.39
2023-01-22T02:36:33.340Z,1013.39
2023-01-22T02:37:14.408Z,1013.43
2023-01-22T02:37:54.938Z,1013.39
2023-01-22T02:39:53.395Z,1013.36
2023-01-22T02:40:34.779Z,1013.36
2023-01-22T02:41:16.090Z,1013.33
2023-01-22T02:41:56.616Z,1013.33
2023-01-22T02:43:55.866Z,1013.31
2023-01-22T02:44:41.975Z,1013.31
2023-01-22T02:45:28.176Z,1013.34
2023-01-22T02:48:01.794Z,1013.3
2023-01-22T02:48:42.175Z,1013.32
2023-01-22T02:49:24.157Z,1013.31
2023-01-22T02:50:06.044Z,1013.35
2023-01-22T02:52:20.278Z,1013.31
2023-01-22T02:53:00.837Z,1013.3
2023-01-22T02:53:41.345Z,1013.33
2023-01-22T02:54:21.895Z,1013.34
2023-01-22T02:55:02.444Z,1013.32
2023-01-22T02:55:43.132Z,1013.36
2023-01-22T02:56:23.689Z,1013.36
2023-01-22T02:58:36.699Z,1013.36
2023-01-22T02:59:17.232Z,1013.36
2023-01-22T02:59:57.731Z,1013.36
2023-01-22T03:00:38.339Z,1013.37
2023-01-22T03:01:19.089Z,1013.35
2023-01-22T03:01:59.293Z,1013.38
2023-01-22T03:02:39.798Z,1013.36
2023-01-22T03:03:20.449Z,1013.35
2023-01-22T03:04:00.836Z,1013.35
2023-01-22T03:04:41.338Z,1013.35
2023-01-22T03:05:21.873Z,1013.34
2023-01-22T03:06:02.388Z,1013.29
2023-01-22T03:06:42.893Z,1013.27
2023-01-22T03:07:23.444Z,1013.28
2023-01-22T03:08:03.986Z,1013.23
2023-01-22T03:08:44.478Z,1013.24
2023-01-22T03:09:24.989Z,1013.25
2023-01-22T03:11:22.957Z,1013.22
2023-01-22T03:12:03.512Z,1013.25
2023-01-22T03:12:43.988Z,1013.28
2023-01-22T03:13:24.550Z,1013.28
2023-01-22T03:14:05.846Z,1013.27
2023-01-22T03:14:46.374Z,1013.27
2023-01-22T03:15:26.876Z,1013.28
2023-01-22T03:16:07.404Z,1013.27
2023-01-22T03:16:47.938Z,1013.27
2023-01-22T03:17:28.424Z,1013.24
2023-01-22T03:18:09.827Z,1013.24
2023-01-22T03:18:50.486Z,1013.23
2023-01-22T03:19:30.861Z,1013.24
2023-01-22T03:20:11.376Z,1013.22
2023-01-22T03:20:51.886Z,1013.22
2023-01-22T03:21:32.395Z,1013.21
2023-01-22T03:22:12.891Z,1013.24
2023-01-22T03:22:53.435Z,1013.22
2023-01-22T03:23:34.621Z,1013.23
2023-01-22T03:24:15.151Z,1013.26
2023-01-22T03:24:55.645Z,1013.26
2023-01-22T03:25:36.169Z,1013.22
2023-01-22T03:26:16.695Z,1013.19
2023-01-22T03:26:57.206Z,1013.22
2023-01-22T03:27:37.724Z,1013.18
2023-01-22T03:28:18.247Z,1013.18
2023-01-22T03:30:16.445Z,1013.2
2023-01-22T03:30:56.778Z,1013.2
2023-01-22T03:31:37.402Z,1013.23
2023-01-22T03:32:17.832Z,1013.24
2023-01-22T03:32:58.336Z,1013.22
2023-01-22T03:33:38.844Z,1013.23
2023-01-22T03:34:19.482Z,1013.24
2023-01-22T03:35:00.048Z,1013.25
2023-01-22T03:35:40.411Z,1013.24
2023-01-22T03:36:20.914Z,1013.21
2023-01-22T03:37:01.436Z,1013.23
2023-01-22T03:37:41.959Z,1013.21
2023-01-22T03:38:22.475Z,1013.22
2023-01-22T03:39:02.989Z,1013.22
2023-01-22T03:39:43.558Z,1013.21
2023-01-22T03:40:24.074Z,1013.19
2023-01-22T03:41:04.665Z,1013.19
2023-01-22T03:41:45.185Z,1013.19
2023-01-22T03:42:25.731Z,1013.12
2023-01-22T03:43:06.247Z,1013.11
2023-01-22T03:43:46.803Z,1013.15
2023-01-22T03:44:27.281Z,1013.13
2023-01-22T03:45:07.846Z,1013.15
2023-01-22T03:45:48.403Z,1013.09
2023-01-22T03:46:28.924Z,1013.15
2023-01-22T03:47:09.415Z,1013.16
2023-01-22T03:47:49.939Z,1013.13
2023-01-22T03:48:30.498Z,1013.14
2023-01-22T03:49:11.000Z,1013.09
2023-01-22T03:49:51.633Z,1013.12
2023-01-22T03:50:32.038Z,1013.08
2023-01-22T03:51:12.605Z,1013.12
2023-01-22T03:51:53.133Z,1013.1
2023-01-22T03:52:33.688Z,1013.09
2023-01-22T03:53:14.293Z,1013.08
2023-01-22T03:53:54.797Z,1013.1
2023-01-22T03:54:35.304Z,1013.09
2023-01-22T03:55:15.799Z,1013.12
2023-01-22T03:55:56.340Z,1013.13
2023-01-22T03:56:36.885Z,1013.14
2023-01-22T03:57:17.395Z,1013.11
2023-01-22T03:57:57.915Z,1013.09
2023-01-22T03:58:38.435Z,1013.11
2023-01-22T03:59:18.947Z,1013.12
2023-01-22T03:59:59.455Z,1013.08
2023-01-22T04:00:39.989Z,1013.08
2023-01-22T04:01:20.565Z,1013.1
2023-01-22T04:02:01.081Z,1013.13
2023-01-22T04:02:42.290Z,1013.14
2023-01-22T04:03:22.800Z,1013.12
2023-01-22T04:05:20.875Z,1013.15
2023-01-22T04:06:01.294Z,1013.17
2023-01-22T04:06:41.796Z,1013.16
2023-01-22T04:07:22.303Z,1013.17
2023-01-22T04:08:02.842Z,1013.17
2023-01-22T04:08:43.337Z,1013.19
2023-01-22T04:09:23.861Z,1013.15
2023-01-22T04:10:04.388Z,1013.18
2023-01-22T04:10:44.899Z,1013.17
2023-01-22T04:11:25.417Z,1013.11
2023-01-22T04:12:05.943Z,1013.15
2023-01-22T04:12:46.465Z,1013.21
2023-01-22T04:13:26.974Z,1013.15
2023-01-22T04:14:07.517Z,1013.21
2023-01-22T04:14:48.081Z,1013.16
2023-01-22T04:15:28.622Z,1013.22
2023-01-22T04:16:09.139Z,1013.18
2023-01-22T04:18:07.080Z,1013.21
2023-01-22T04:18:47.584Z,1013.23
2023-01-22T04:19:28.187Z,1013.25
2023-01-22T04:20:08.695Z,1013.23
2023-01-22T04:20:49.391Z,1013.26
2023-01-22T04:21:29.757Z,1013.24
2023-01-22T04:22:10.271Z,1013.27
2023-01-22T04:22:50.786Z,1013.25
2023-01-22T04:25:03.896Z,1013.25
2023-01-22T04:25:44.449Z,1013.23
2023-01-22T04:26:24.959Z,1013.28
2023-01-22T04:27:05.493Z,1013.28
2023-01-22T04:27:45.997Z,1013.27
2023-01-22T04:28:26.512Z,1013.3
2023-01-22T04:29:07.048Z,1013.28
2023-01-22T04:29:47.581Z,1013.3
2023-01-22T04:30:28.123Z,1013.28
2023-01-22T04:31:08.843Z,1013.28
2023-01-22T04:31:49.159Z,1013.23
2023-01-22T04:32:29.663Z,1013.24
2023-01-22T04:34:27.624Z,1013.32
2023-01-22T04:35:08.129Z,1013.26
2023-01-22T04:35:48.640Z,1013.26
2023-01-22T04:36:29.320Z,1013.28
2023-01-22T04:38:28.588Z,1013.26
2023-01-22T04:39:09.124Z,1013.34
2023-01-22T04:39:49.631Z,1013.3
2023-01-22T04:40:30.139Z,1013.34
2023-01-22T04:41:10.686Z,1013.31
2023-01-22T04:41:51.221Z,1013.29
2023-01-22T04:42:31.737Z,1013.31
2023-01-22T04:43:12.226Z,1013.32
2023-01-22T04:43:52.717Z,1013.33
2023-01-22T04:44:33.330Z,1013.34
2023-01-22T04:45:13.868Z,1013.34
2023-01-22T04:45:54.352Z,1013.32
2023-01-22T04:46:34.868Z,1013.33
2023-01-22T04:47:15.361Z,1013.31
2023-01-22T04:47:55.867Z,1013.33
2023-01-22T04:48:36.366Z,1013.29
2023-01-22T04:49:16.879Z,1013.31
2023-01-22T04:49:57.401Z,1013.32
2023-01-22T04:50:37.936Z,1013.34
2023-01-22T04:51:18.510Z,1013.34
2023-01-22T04:51:59.119Z,1013.32
2023-01-22T04:52:39.496Z,1013.31
2023-01-22T04:53:20.894Z,1013.34
2023-01-22T04:54:01.447Z,1013.33
2023-01-22T04:54:41.973Z,1013.36
2023-01-22T04:55:22.461Z,1013.36
2023-01-22T04:56:02.996Z,1013.35
2023-01-22T04:56:43.515Z,1013.37
2023-01-22T04:57:24.049Z,1013.36
2023-01-22T04:58:04.555Z,1013.38
2023-01-22T04:58:45.108Z,1013.37
2023-01-22T04:59:25.631Z,1013.33
2023-01-22T05:00:06.169Z,1013.3
2023-01-22T05:00:46.663Z,1013.35
2023-01-22T05:01:27.225Z,1013.33
2023-01-22T05:02:07.763Z,1013.36
2023-01-22T05:02:48.311Z,1013.33
2023-01-22T05:03:28.786Z,1013.33
2023-01-22T05:04:09.309Z,1013.35
2023-01-22T05:04:49.869Z,1013.34
2023-01-22T05:05:31.157Z,1013.36
2023-01-22T05:06:11.753Z,1013.35
2023-01-22T05:06:52.297Z,1013.35
2023-01-22T05:07:32.919Z,1013.36
2023-01-22T05:09:45.960Z,1013.39
2023-01-22T05:10:26.481Z,1013.36
2023-01-22T05:11:07.035Z,1013.39
2023-01-22T05:11:48.397Z,1013.35
2023-01-22T05:12:29.567Z,1013.34
2023-01-22T05:14:43.561Z,1013.39
2023-01-22T05:15:25.105Z,1013.36
2023-01-22T05:16:05.450Z,1013.36
2023-01-22T05:16:45.843Z,1013.38
2023-01-22T05:17:26.388Z,1013.36
2023-01-22T05:18:06.926Z,1013.38
2023-01-22T05:18:47.378Z,1013.41
2023-01-22T05:19:27.939Z,1013.36
2023-01-22T05:20:08.495Z,1013.32
2023-01-22T05:20:49.025Z,1013.37
2023-01-22T05:21:29.596Z,1013.38
2023-01-22T05:22:10.075Z,1013.37
2023-01-22T05:22:50.711Z,1013.39
2023-01-22T05:23:31.189Z,1013.38
2023-01-22T05:24:11.729Z,1013.39
2023-01-22T05:24:52.248Z,1013.37
2023-01-22T05:25:32.751Z,1013.36
2023-01-22T05:26:13.254Z,1013.37
2023-01-22T05:26:54.481Z,1013.37
2023-01-22T05:27:34.999Z,1013.37
2023-01-22T05:28:15.548Z,1013.38
2023-01-22T05:28:56.093Z,1013.41
2023-01-22T05:29:36.596Z,1013.44
2023-01-22T05:30:17.367Z,1013.43
2023-01-22T05:30:57.693Z,1013.4
2023-01-22T05:33:12.148Z,1013.4
2023-01-22T05:33:56.089Z,1013.4
2023-01-22T05:34:38.392Z,1013.41
2023-01-22T05:35:20.550Z,1013.43
2023-01-22T05:36:01.080Z,1013.39
2023-01-22T05:38:33.436Z,1013.49
2023-01-22T05:39:13.848Z,1013.46
2023-01-22T05:39:55.337Z,1013.46
2023-01-22T05:40:36.097Z,1013.47
2023-01-22T05:43:06.672Z,1013.49
2023-01-22T05:43:48.997Z,1013.52
2023-01-22T05:44:33.482Z,1013.5
2023-01-22T05:45:12.661Z,1013.5
2023-01-22T05:47:26.356Z,1013.51
2023-01-22T05:48:06.888Z,1013.54
2023-01-22T05:48:49.713Z,1013.52
2023-01-22T05:49:30.715Z,1013.54
2023-01-22T05:51:44.822Z,1013.55
2023-01-22T05:52:25.328Z,1013.53
2023-01-22T05:53:05.849Z,1013.54
2023-01-22T05:53:46.488Z,1013.53
2023-01-22T05:54:26.919Z,1013.54
2023-01-22T05:55:07.473Z,1013.54
2023-01-22T05:55:47.921Z,1013.57
2023-01-22T05:57:46.268Z,1013.58
2023-01-22T05:58:26.789Z,1013.58
2023-01-22T05:59:08.063Z,1013.58
2023-01-22T05:59:48.633Z,1013.58
2023-01-22T06:02:01.673Z,1013.61
2023-01-22T06:02:42.146Z,1013.65
2023-01-22T06:03:22.732Z,1013.64
2023-01-22T06:04:03.217Z,1013.62
2023-01-22T06:06:16.313Z,1013.64
2023-01-22T06:06:56.825Z,1013.69
2023-01-22T06:07:38.143Z,1013.7
2023-01-22T06:08:18.637Z,1013.68
2023-01-22T06:08:59.982Z,1013.67
2023-01-22T06:09:41.269Z,1013.68
2023-01-22T06:10:21.722Z,1013.68
2023-01-22T06:11:02.241Z,1013.7
2023-01-22T06:11:42.734Z,1013.68
2023-01-22T06:12:23.330Z,1013.74
2023-01-22T06:13:03.905Z,1013.74
2023-01-22T06:15:02.829Z,1013.68
2023-01-22T06:15:45.784Z,1013.71
2023-01-22T06:16:26.980Z,1013.69
2023-01-22T06:17:08.586Z,1013.67
2023-01-22T06:19:07.013Z,1013.72
2023-01-22T06:19:49.068Z,1013.76
2023-01-22T06:20:29.738Z,1013.76
2023-01-22T06:21:10.238Z,1013.77
2023-01-22T06:21:50.733Z,1013.77
2023-01-22T06:22:32.351Z,1013.75
2023-01-22T06:23:14.647Z,1013.78
2023-01-22T06:23:55.194Z,1013.78
2023-01-22T06:24:35.862Z,1013.78
2023-01-22T06:25:16.401Z,1013.81
2023-01-22T06:27:44.697Z,1013.78
2023-01-22T06:28:25.247Z,1013.79
2023-01-22T06:29:05.794Z,1013.76
2023-01-22T06:29:46.370Z,1013.8
2023-01-22T06:32:00.893Z,1013.8
2023-01-22T06:32:42.077Z,1013.78
2023-01-22T06:33:28.141Z,1013.8
2023-01-22T06:34:09.486Z,1013.79
2023-01-22T06:37:14.019Z,1013.8
2023-01-22T06:37:54.651Z,1013.78
2023-01-22T06:38:36.152Z,1013.8
2023-01-22T06:39:16.554Z,1013.8
2023-01-22T06:39:58.972Z,1013.79
2023-01-22T06:40:39.441Z,1013.78
2023-01-22T06:41:19.852Z,1013.86
2023-01-22T06:43:33.194Z,1013.81
2023-01-22T06:44:13.768Z,1013.79
2023-01-22T06:44:54.400Z,1013.8
2023-01-22T06:45:35.664Z,1013.81
2023-01-22T06:46:17.281Z,1013.86
2023-01-22T06:46:57.795Z,1013.84
2023-01-22T06:47:38.851Z,1013.8
2023-01-22T06:48:19.336Z,1013.82
2023-01-22T06:49:01.597Z,1013.83
2023-01-22T06:49:42.804Z,1013.82
2023-01-22T06:50:23.305Z,1013.83
2023-01-22T06:51:03.898Z,1013.85
2023-01-22T06:51:44.403Z,1013.86
2023-01-22T06:52:24.899Z,1013.87
2023-01-22T06:54:46.919Z,1013.9
2023-01-22T06:55:27.685Z,1013.93
2023-01-22T06:56:08.030Z,1013.85
2023-01-22T06:56:48.617Z,1013.89
2023-01-22T06:57:29.158Z,1013.85
2023-01-22T06:58:09.719Z,1013.86
2023-01-22T06:58:50.252Z,1013.83
2023-01-22T06:59:30.803Z,1013.84
2023-01-22T07:00:11.320Z,1013.85
2023-01-22T07:00:51.856Z,1013.85
2023-01-22T07:01:32.619Z,1013.87
2023-01-22T07:02:13.123Z,1013.84
2023-01-22T07:02:53.676Z,1013.86
2023-01-22T07:03:34.262Z,1013.89
2023-01-22T07:04:14.760Z,1013.92
2023-01-22T07:04:55.266Z,1013.88
2023-01-22T07:05:35.885Z,1013.89
2023-01-22T07:06:16.408Z,1013.91
2023-01-22T07:06:56.966Z,1013.89
2023-01-22T07:07:37.542Z,1013.87
2023-01-22T07:08:18.042Z,1013.86
2023-01-22T07:08:58.590Z,1013.86
2023-01-22T07:11:11.619Z,1013.93
2023-01-22T07:11:52.057Z,1013.89
2023-01-22T07:12:32.532Z,1013.92
2023-01-22T07:13:13.080Z,1013.95
2023-01-22T07:13:53.658Z,1013.96
2023-01-22T07:14:37.259Z,1013.96
2023-01-22T07:15:14.711Z,1013.97
2023-01-22T07:15:55.338Z,1013.99
2023-01-22T07:16:35.791Z,1013.95
2023-01-22T07:17:16.345Z,1013.97
2023-01-22T07:17:56.870Z,1014
2023-01-22T07:18:37.424Z,1014.02
2023-01-22T07:19:17.920Z,1014.01
2023-01-22T07:19:58.449Z,1014
2023-01-22T07:20:39.037Z,1014.02
2023-01-22T07:21:19.669Z,1014.01
2023-01-22T07:22:00.157Z,1014.05
2023-01-22T07:22:40.698Z,1014.07
2023-01-22T07:23:21.227Z,1014.06
2023-01-22T07:24:01.794Z,1014.08
2023-01-22T07:24:42.320Z,1014.08
2023-01-22T07:25:22.963Z,1014.08
2023-01-22T07:26:03.476Z,1014.09
2023-01-22T07:26:44.118Z,1014.11
2023-01-22T07:27:24.525Z,1014.12
2023-01-22T07:28:05.171Z,1014.15
2023-01-22T07:28:45.714Z,1014.13
2023-01-22T07:29:26.245Z,1014.14
2023-01-22T07:30:06.868Z,1014.16
2023-01-22T07:30:47.529Z,1014.17
2023-01-22T07:31:28.083Z,1014.16
2023-01-22T07:33:26.017Z,1014.17
2023-01-22T07:34:06.554Z,1014.18
2023-01-22T07:34:47.087Z,1014.22
2023-01-22T07:35:27.704Z,1014.2
2023-01-22T07:36:08.226Z,1014.23
2023-01-22T07:36:48.747Z,1014.2
2023-01-22T07:37:29.315Z,1014.27
2023-01-22T07:38:09.878Z,1014.23
2023-01-22T07:38:50.398Z,1014.23
2023-01-22T07:39:30.976Z,1014.25
2023-01-22T07:40:11.537Z,1014.29
2023-01-22T07:40:52.083Z,1014.27
2023-01-22T07:41:32.632Z,1014.24
2023-01-22T07:43:30.878Z,1014.29
2023-01-22T07:44:11.349Z,1014.3
2023-01-22T07:44:51.869Z,1014.3
2023-01-22T07:45:32.356Z,1014.32
2023-01-22T07:46:12.913Z,1014.37
2023-01-22T07:46:53.578Z,1014.33
2023-01-22T07:47:34.053Z,1014.35
2023-01-22T07:48:14.604Z,1014.34
2023-01-22T07:48:55.677Z,1014.39
2023-01-22T07:49:36.271Z,1014.39
2023-01-22T07:50:17.885Z,1014.41
2023-01-22T07:50:58.202Z,1014.41
2023-01-22T07:51:38.766Z,1014.41
2023-01-22T07:52:19.570Z,1014.4
2023-01-22T07:53:00.076Z,1014.43
2023-01-22T07:53:40.883Z,1014.42
2023-01-22T07:54:21.462Z,1014.46
2023-01-22T07:56:34.546Z,1014.47
2023-01-22T07:57:15.210Z,1014.48
2023-01-22T07:57:55.719Z,1014.47
2023-01-22T07:58:36.368Z,1014.55
2023-01-22T07:59:16.785Z,1014.56
2023-01-22T07:59:57.438Z,1014.54
2023-01-22T08:00:38.033Z,1014.55
2023-01-22T08:01:18.647Z,1014.54
2023-01-22T08:02:00.645Z,1014.55
2023-01-22T08:02:39.792Z,1014.56
2023-01-22T08:03:20.238Z,1014.55
2023-01-22T08:04:00.768Z,1014.57
2023-01-22T08:04:41.286Z,1014.53
2023-01-22T08:05:21.887Z,1014.55
2023-01-22T08:06:02.716Z,1014.56
2023-01-22T08:06:43.201Z,1014.61
2023-01-22T08:07:23.727Z,1014.59
2023-01-22T08:08:04.311Z,1014.62
2023-01-22T08:10:17.697Z,1014.61
2023-01-22T08:10:58.610Z,1014.64
2023-01-22T08:11:39.247Z,1014.57
2023-01-22T08:12:19.753Z,1014.54
2023-01-22T08:13:00.363Z,1014.56
2023-01-22T08:13:40.997Z,1014.61
2023-01-22T08:14:21.435Z,1014.64
2023-01-22T08:16:34.614Z,1014.61
2023-01-22T08:17:15.024Z,1014.65
2023-01-22T08:17:55.505Z,1014.65
2023-01-22T08:18:36.894Z,1014.64
2023-01-22T08:21:09.580Z,1014.69
2023-01-22T08:21:50.129Z,1014.66
2023-01-22T08:22:30.720Z,1014.68
2023-01-22T08:23:12.086Z,1014.7
2023-01-22T08:25:41.836Z,1014.74
2023-01-22T08:26:22.363Z,1014.76
2023-01-22T08:27:03.530Z,1014.77
2023-01-22T08:27:44.243Z,1014.75
2023-01-22T08:29:57.537Z,1014.77
2023-01-22T08:30:45.254Z,1014.75
2023-01-22T08:31:27.263Z,1014.76
2023-01-22T08:31:59.102Z,1014.75
2023-01-22T08:32:40.459Z,1014.79
2023-01-22T08:33:20.884Z,1014.78
2023-01-22T08:34:01.388Z,1014.79
2023-01-22T08:34:42.040Z,1014.8
2023-01-22T08:35:24.409Z,1014.81
2023-01-22T08:36:02.998Z,1014.82
2023-01-22T08:36:43.549Z,1014.84
2023-01-22T08:37:24.098Z,1014.83
2023-01-22T08:38:05.466Z,1014.85
2023-01-22T08:38:46.233Z,1014.85
2023-01-22T08:39:26.783Z,1014.86
2023-01-22T08:40:07.266Z,1014.9
2023-01-22T08:40:47.827Z,1014.89
2023-01-22T08:41:28.219Z,1014.88
2023-01-22T08:42:08.913Z,1014.92
2023-01-22T08:42:49.423Z,1014.93
2023-01-22T08:43:29.926Z,1014.94
2023-01-22T08:45:43.207Z,1014.96
2023-01-22T08:46:23.739Z,1014.95
2023-01-22T08:47:04.291Z,1014.97
2023-01-22T08:47:44.836Z,1014.96
2023-01-22T08:48:25.391Z,1014.95
2023-01-22T08:50:43.462Z,1014.95
2023-01-22T08:51:24.977Z,1014.96
2023-01-22T08:52:05.594Z,1014.95
2023-01-22T08:52:46.096Z,1014.9
2023-01-22T08:53:27.304Z,1014.96
2023-01-22T08:54:07.791Z,1014.94
2023-01-22T08:54:48.271Z,1014.96
2023-01-22T08:57:06.411Z,1014.93
2023-01-22T08:57:46.929Z,1014.94
2023-01-22T08:58:27.433Z,1014.95
2023-01-22T08:59:07.953Z,1014.95
2023-01-22T09:00:00.405Z,1014.95
2023-01-22T09:02:01.693Z,1014.98
2023-01-22T09:02:42.059Z,1014.97
2023-01-22T09:03:22.562Z,1014.97
2023-01-22T09:04:03.089Z,1014.96
2023-01-22T09:06:17.321Z,1014.99
2023-01-22T09:06:57.844Z,1014.95
2023-01-22T09:07:38.352Z,1014.94
2023-01-22T09:08:18.867Z,1014.97
2023-01-22T09:08:59.417Z,1014.98
2023-01-22T09:09:39.946Z,1014.98
2023-01-22T09:10:22.100Z,1014.98
2023-01-22T09:11:01.885Z,1014.95
2023-01-22T09:11:42.402Z,1014.98
2023-01-22T09:12:22.914Z,1014.97
2023-01-22T09:13:03.434Z,1014.99
2023-01-22T09:13:43.968Z,1015.01
2023-01-22T09:14:24.468Z,1015.01
2023-01-22T09:15:04.992Z,1014.98
2023-01-22T09:15:45.506Z,1015.03
2023-01-22T09:16:26.045Z,1015.04
2023-01-22T09:17:06.656Z,1015.05
2023-01-22T09:17:47.073Z,1015.08
2023-01-22T09:18:28.218Z,1015.08
2023-01-22T09:19:08.733Z,1015.11
2023-01-22T09:19:49.258Z,1015.12
2023-01-22T09:20:29.788Z,1015.07
2023-01-22T09:21:10.338Z,1015.11
2023-01-22T09:21:50.833Z,1015.11
2023-01-22T09:22:31.351Z,1015.12
2023-01-22T09:23:13.175Z,1015.15
2023-01-22T09:23:52.381Z,1015.14
2023-01-22T09:24:32.903Z,1015.16
2023-01-22T09:25:13.432Z,1015.17
2023-01-22T09:25:53.932Z,1015.17
2023-01-22T09:26:34.451Z,1015.18
2023-01-22T09:27:14.969Z,1015.16
2023-01-22T09:27:55.482Z,1015.18
2023-01-22T09:28:36.299Z,1015.18
2023-01-22T09:29:16.547Z,1015.21
2023-01-22T09:29:57.075Z,1015.25
2023-01-22T09:30:37.604Z,1015.24
2023-01-22T09:31:18.123Z,1015.24
2023-01-22T09:33:31.271Z,1015.24
2023-01-22T09:34:12.426Z,1015.24
2023-01-22T09:34:52.929Z,1015.27
2023-01-22T09:35:33.445Z,1015.26
2023-01-22T09:36:13.947Z,1015.26